Neosho Rapids, Kansas
Current Conditions -  °F | °C
As of 2:53 PM on Wednesday 26 Nov 2014 (Local Time) from KEMP Reporting Station
Broken Clouds Broken Clouds  
Wind Chill: 29°   Ceiling: 4400
Heat Index: 39°   Visibility: 10mi
Dew Point: 25°   Wind: 22mph
Humidity: 57%   Direction: 320°NW
Pressure: 30.17"   Gusts: 31mph
Location:  38.37°N, 95.99°W
Report Text: KEMP 262053Z AUTO 32019G27KT 10SM FEW031 BKN044 04/M04 A3017 RMK AO2 PK WND 31030/1955 SLP224 T00391039 51027
Loading
Personal Weather Stations






























Interactive Weather Map New forecast layout! Learn more

10-Day Weather Forecast

Advertisements
Track Severe Weather on mobile